Chautauqua County-Jamestown Airport
KJHW : rendu visible

Aérodrome :











RETROUVEZ-NOUS SUR...

 
LOGIN :

S'inscrire | Disclaimer

   EN    FR    IT 

 









Légende :    VFR   VFR Marginal   IFR   IFR Intensif   IFR Très Intensif
Visi : 
Plafond : 
>= 8 km
>= 3000ft
5 à 8 km
1000 à 3000 ft
1500m à 5 km
500 à 1000 ft
800 à 1500m
200 à 500 ft
< 800m
< 200 ft
Symboles :   Orages  Brouillard  Fortes neiges  Fortes précipitations  Vent > 20 kt






- Altitude de l'aérodrome : 1723 ft


KJHW - Chautauqua County-Jamestown

DERNIER METAR :
  • 222356Z AUTO 31008KT 10SM OVC025 M01/M05 A3004 RMK AO2 SLP195 60000 T10111050 10000 21011 51023 FZRANO

METARs EXPIRÉS :
  • 222305Z AUTO 28009KT 10SM BKN027 OVC034 M01/M05 A3003 RMK AO2 FZRANO
  • 222256Z AUTO 29010KT 10SM FEW027 OVC034 M01/M05 A3003 RMK AO2 SLP188 T10061050 FZRANO
  • 222156Z AUTO 29011KT 10SM FEW024 OVC038 M01/M04 A3000 RMK AO2 SLP177 T10061044 FZRANO
  • 222106Z AUTO 29010G18KT 10SM BKN026 OVC035 M01/M04 A2997 RMK AO2 FZRANO

TAF KJHW
Valide du 23 à 00h jusqu'au 24 à 00h UTC


222358Z 2300/2324 29010KT P6SM BKN025
FM230400 29007KT P6SM BKN015
FM230700 26005KT P6SM SCT020
FM232000 22007KT P6SM SKC



MET'MAP, la Météo Aéronautique d'un coup d'oeil ! - Copyright ORBIFLY Décembre 2007 - Disclaimer

ORBIFLY MET'MAP TEAM :

Programmation & Développement : Alexandra Zaïnal
Conception & Développement : Baudouin d'Aumeries
Co-Programmation & Développement : Marc-Olivier Méhu
Soutien technique & logistique : Manuel Goepfert

Contact : metmap@orbifly.com




SOURCES & CREDITS :

   NOAA       Earth
Advisory